createdAt,value
2022-09-22T00:04:08.543Z,14.33
2022-09-22T00:11:17.053Z,14.28
2022-09-22T00:18:18.623Z,14.20
2022-09-22T00:25:20.407Z,14.12
2022-09-22T00:32:22.044Z,14.03
2022-09-22T00:39:23.671Z,13.89
2022-09-22T00:46:26.611Z,13.78
2022-09-22T00:53:28.217Z,13.69
2022-09-22T01:00:29.846Z,13.58
2022-09-22T01:07:31.561Z,13.49
2022-09-22T01:14:56.815Z,13.43
2022-09-22T01:22:53.624Z,13.39
2022-09-22T01:30:10.057Z,13.29
2022-09-22T01:37:23.067Z,13.25
2022-09-22T01:44:27.148Z,13.21
2022-09-22T01:51:39.497Z,13.13
2022-09-22T01:58:44.553Z,13.10
2022-09-22T02:05:52.345Z,13.09
2022-09-22T02:12:55.389Z,13.00
2022-09-22T02:19:56.917Z,12.93
2022-09-22T02:27:00.302Z,12.84
2022-09-22T02:34:01.916Z,12.80
2022-09-22T02:41:10.926Z,12.72
2022-09-22T02:48:15.486Z,12.63
2022-09-22T02:55:17.088Z,12.53
2022-09-22T03:02:18.622Z,12.48
2022-09-22T03:09:20.158Z,12.38
2022-09-22T03:16:21.768Z,12.28
2022-09-22T03:23:23.363Z,12.19
2022-09-22T03:30:25.023Z,12.13
2022-09-22T03:37:26.559Z,12.10
2022-09-22T03:44:28.123Z,12.04
2022-09-22T03:51:30.425Z,11.97
2022-09-22T03:58:31.991Z,11.92
2022-09-22T04:05:33.590Z,11.85
2022-09-22T04:12:35.170Z,11.80
2022-09-22T04:19:36.714Z,11.83
2022-09-22T04:26:44.477Z,11.81
2022-09-22T04:33:58.107Z,11.78
2022-09-22T04:41:01.310Z,11.74
2022-09-22T04:48:02.877Z,11.66
2022-09-22T04:55:04.750Z,11.61
2022-09-22T05:02:06.349Z,11.57
2022-09-22T05:09:07.919Z,11.51
2022-09-22T05:16:09.533Z,11.46
2022-09-22T05:23:11.649Z,11.44
2022-09-22T05:30:13.498Z,11.42
2022-09-22T05:37:15.059Z,11.42
2022-09-22T05:44:16.873Z,11.44
2022-09-22T05:51:18.431Z,11.46
2022-09-22T05:58:20.483Z,11.49
2022-09-22T06:05:22.073Z,11.57
2022-09-22T06:12:23.688Z,11.67
2022-09-22T06:19:26.038Z,11.79
2022-09-22T06:26:27.739Z,11.94
2022-09-22T06:33:29.376Z,12.10
2022-09-22T06:40:32.222Z,12.19
2022-09-22T06:47:33.850Z,12.33
2022-09-22T06:54:35.393Z,12.49
2022-09-22T07:01:37.311Z,12.64
2022-09-22T07:08:39.512Z,12.90
2022-09-22T07:15:41.067Z,13.40
2022-09-22T07:22:42.613Z,13.98
2022-09-22T07:29:47.721Z,14.46
2022-09-22T07:36:49.321Z,15.09
2022-09-22T07:43:52.691Z,15.50
2022-09-22T07:50:54.789Z,16.12
2022-09-22T07:57:59.996Z,16.58
2022-09-22T08:05:03.239Z,16.97
2022-09-22T08:12:05.227Z,17.56
2022-09-22T08:19:12.429Z,17.74
2022-09-22T08:26:13.996Z,18.36
2022-09-22T08:33:15.610Z,18.62
2022-09-22T08:40:21.112Z,19.15
2022-09-22T08:47:44.807Z,19.50
2022-09-22T08:54:46.389Z,19.89
2022-09-22T09:02:11.260Z,20.56
2022-09-22T09:09:33.840Z,21.17
2022-09-22T09:17:06.707Z,22.25
2022-09-22T09:31:38.255Z,22.87
2022-09-22T09:38:44.553Z,23.19
2022-09-22T09:46:24.691Z,23.11
2022-09-22T09:53:40.620Z,23.89
2022-09-22T10:00:59.157Z,24.26
2022-09-22T10:08:02.063Z,25.14
2022-09-22T10:15:03.834Z,24.80
2022-09-22T10:22:25.095Z,24.60
2022-09-22T10:29:27.751Z,24.99
2022-09-22T10:36:30.693Z,23.66
2022-09-22T10:43:47.318Z,24.18
2022-09-22T10:51:22.788Z,26.11
2022-09-22T10:58:27.246Z,26.40
2022-09-22T11:06:16.800Z,24.30
2022-09-22T11:13:27.574Z,24.26
2022-09-22T11:20:41.858Z,25.08
2022-09-22T11:28:04.598Z,24.65
2022-09-22T11:35:31.026Z,25.74
2022-09-22T11:42:38.609Z,27.85
2022-09-22T11:50:00.442Z,29.20
2022-09-22T11:57:06.652Z,30.19
2022-09-22T12:04:26.907Z,30.32
2022-09-22T12:11:28.454Z,31.44
2022-09-22T12:18:35.171Z,32.30
2022-09-22T12:25:54.318Z,32.78
2022-09-22T12:32:56.330Z,31.57
2022-09-22T12:40:24.132Z,32.09
2022-09-22T12:47:34.348Z,32.38
2022-09-22T12:54:37.207Z,30.45
2022-09-22T13:01:39.279Z,29.97
2022-09-22T13:08:40.757Z,29.35
2022-09-22T13:15:54.143Z,29.74
2022-09-22T13:23:05.053Z,28.98
2022-09-22T13:30:12.512Z,28.04
2022-09-22T13:37:16.655Z,29.15
2022-09-22T13:44:21.670Z,29.60
2022-09-22T13:51:24.899Z,30.20
2022-09-22T13:58:41.084Z,30.75
2022-09-22T14:05:53.225Z,29.96
2022-09-22T14:12:55.481Z,29.04
2022-09-22T14:20:00.755Z,28.35
2022-09-22T14:27:06.461Z,29.18
2022-09-22T14:34:08.801Z,29.59
2022-09-22T14:41:27.350Z,28.45
2022-09-22T14:48:33.269Z,26.83
2022-09-22T14:55:42.931Z,25.53
2022-09-22T15:02:49.468Z,24.67
2022-09-22T15:09:52.897Z,24.09
2022-09-22T15:17:14.423Z,23.62
2022-09-22T15:24:17.825Z,23.25
2022-09-22T15:31:24.575Z,22.95
2022-09-22T15:38:27.470Z,22.69
2022-09-22T15:45:30.081Z,22.45
2022-09-22T15:52:31.647Z,22.31
2022-09-22T15:59:33.406Z,22.25
2022-09-22T16:06:34.962Z,22.04
2022-09-22T16:13:36.544Z,21.91
2022-09-22T16:20:38.165Z,21.64
2022-09-22T16:27:39.698Z,21.58
2022-09-22T16:34:41.270Z,21.42
2022-09-22T16:41:45.793Z,21.24
2022-09-22T16:48:47.345Z,21.01
2022-09-22T16:55:48.892Z,20.83
2022-09-22T17:02:50.450Z,20.62
2022-09-22T17:09:52.052Z,20.37
2022-09-22T17:16:55.289Z,20.13
2022-09-22T17:24:00.460Z,19.84
2022-09-22T17:31:02.585Z,19.60
2022-09-22T17:38:04.130Z,19.34
2022-09-22T17:45:07.702Z,19.11
2022-09-22T17:52:27.950Z,18.91
2022-09-22T17:59:31.094Z,18.66
2022-09-22T18:06:32.636Z,18.41
2022-09-22T18:13:39.027Z,18.19
2022-09-22T18:20:40.843Z,17.94
2022-09-22T18:27:42.404Z,17.79
2022-09-22T18:34:44.023Z,17.63
2022-09-22T18:41:45.608Z,17.45
2022-09-22T18:48:57.333Z,17.28
2022-09-22T18:56:08.524Z,17.14
2022-09-22T19:03:10.080Z,16.93
2022-09-22T19:10:13.312Z,16.81
2022-09-22T19:17:17.190Z,16.64
2022-09-22T19:24:18.919Z,16.48
2022-09-22T19:31:20.567Z,16.24
2022-09-22T19:38:22.200Z,16.11
2022-09-22T19:45:24.939Z,15.96
2022-09-22T19:52:26.458Z,15.85
2022-09-22T19:59:28.055Z,15.74
2022-09-22T20:06:29.603Z,15.58
2022-09-22T20:13:49.542Z,15.48
2022-09-22T20:20:51.542Z,15.37
2022-09-22T20:27:53.110Z,15.24
2022-09-22T20:34:55.375Z,15.11
2022-09-22T20:41:56.933Z,14.97
2022-09-22T20:48:58.710Z,14.87
2022-09-22T20:56:04.711Z,14.74
2022-09-22T21:03:06.347Z,14.68
2022-09-22T21:10:27.231Z,14.66
2022-09-22T21:17:29.669Z,14.60
2022-09-22T21:24:32.471Z,14.49
2022-09-22T21:31:34.829Z,14.36
2022-09-22T21:38:37.002Z,14.25
2022-09-22T21:45:38.564Z,14.12
2022-09-22T21:52:40.131Z,14.03
2022-09-22T21:59:41.729Z,13.94
2022-09-22T22:06:46.069Z,13.83
2022-09-22T22:13:48.224Z,13.72
2022-09-22T22:21:05.768Z,13.65
2022-09-22T22:28:08.549Z,13.57
2022-09-22T22:35:11.596Z,13.47
2022-09-22T22:42:13.301Z,13.37
2022-09-22T22:49:14.959Z,13.26
2022-09-22T22:56:17.891Z,13.14
2022-09-22T23:03:19.459Z,13.03
2022-09-22T23:10:21.395Z,12.95
2022-09-22T23:17:22.943Z,12.86
2022-09-22T23:24:24.558Z,12.75
2022-09-22T23:31:26.263Z,12.66
2022-09-22T23:38:29.295Z,12.58
2022-09-22T23:45:30.867Z,12.51
2022-09-22T23:52:32.412Z,12.44
2022-09-22T23:59:33.981Z,12.41
